sensor_id;sensor_type;location;lat;lon;timestamp;temperature;humidity
44517;DHT22;30223;17.182;-96.766;2022-11-06T00:18:16;27.90;52.10
44517;DHT22;30223;17.182;-96.766;2022-11-06T00:20:43;27.90;50.90
44517;DHT22;30223;17.182;-96.766;2022-11-06T00:23:09;27.90;51.00
44517;DHT22;30223;17.182;-96.766;2022-11-06T00:25:39;27.90;51.40
44517;DHT22;30223;17.182;-96.766;2022-11-06T00:28:06;27.90;51.50
44517;DHT22;30223;17.182;-96.766;2022-11-06T00:30:32;27.90;51.70
44517;DHT22;30223;17.182;-96.766;2022-11-06T00:32:59;27.90;51.80
44517;DHT22;30223;17.182;-96.766;2022-11-06T00:35:25;27.80;52.10
44517;DHT22;30223;17.182;-96.766;2022-11-06T00:37:52;27.80;52.40
44517;DHT22;30223;17.182;-96.766;2022-11-06T00:40:19;27.80;52.60
44517;DHT22;30223;17.182;-96.766;2022-11-06T00:42:45;27.80;52.70
44517;DHT22;30223;17.182;-96.766;2022-11-06T00:45:12;27.80;52.90
44517;DHT22;30223;17.182;-96.766;2022-11-06T00:47:38;27.80;53.30
44517;DHT22;30223;17.182;-96.766;2022-11-06T00:50:05;27.80;53.40
44517;DHT22;30223;17.182;-96.766;2022-11-06T00:52:32;27.80;53.50
44517;DHT22;30223;17.182;-96.766;2022-11-06T00:54:58;27.80;53.70
44517;DHT22;30223;17.182;-96.766;2022-11-06T00:57:25;27.80;54.10
44517;DHT22;30223;17.182;-96.766;2022-11-06T00:59:51;27.80;54.00
44517;DHT22;30223;17.182;-96.766;2022-11-06T01:02:18;27.70;54.20
44517;DHT22;30223;17.182;-96.766;2022-11-06T01:04:46;27.70;54.30
44517;DHT22;30223;17.182;-96.766;2022-11-06T01:07:12;27.70;54.50
44517;DHT22;30223;17.182;-96.766;2022-11-06T01:09:39;27.70;54.50
44517;DHT22;30223;17.182;-96.766;2022-11-06T01:12:05;27.70;54.60
44517;DHT22;30223;17.182;-96.766;2022-11-06T01:14:32;27.70;54.80
44517;DHT22;30223;17.182;-96.766;2022-11-06T01:16:59;27.70;54.80
44517;DHT22;30223;17.182;-96.766;2022-11-06T01:19:25;27.70;54.80
44517;DHT22;30223;17.182;-96.766;2022-11-06T01:21:52;27.70;54.90
44517;DHT22;30223;17.182;-96.766;2022-11-06T01:24:25;27.70;55.00
44517;DHT22;30223;17.182;-96.766;2022-11-06T01:26:52;27.60;54.90
44517;DHT22;30223;17.182;-96.766;2022-11-06T01:29:19;27.60;54.90
44517;DHT22;30223;17.182;-96.766;2022-11-06T01:31:47;27.60;55.00
44517;DHT22;30223;17.182;-96.766;2022-11-06T01:34:17;27.60;54.90
44517;DHT22;30223;17.182;-96.766;2022-11-06T01:36:44;27.60;54.90
44517;DHT22;30223;17.182;-96.766;2022-11-06T01:39:13;27.60;54.90
44517;DHT22;30223;17.182;-96.766;2022-11-06T01:41:43;27.60;54.80
44517;DHT22;30223;17.182;-96.766;2022-11-06T01:47:00;27.50;54.70
44517;DHT22;30223;17.182;-96.766;2022-11-06T01:49:29;27.50;54.60
44517;DHT22;30223;17.182;-96.766;2022-11-06T01:52:02;27.50;54.50
44517;DHT22;30223;17.182;-96.766;2022-11-06T01:54:33;27.50;54.50
44517;DHT22;30223;17.182;-96.766;2022-11-06T01:57:03;27.50;54.60
44517;DHT22;30223;17.182;-96.766;2022-11-06T01:59:34;27.50;54.50
44517;DHT22;30223;17.182;-96.766;2022-11-06T02:02:02;27.50;54.50
44517;DHT22;30223;17.182;-96.766;2022-11-06T02:04:41;27.40;54.70
44517;DHT22;30223;17.182;-96.766;2022-11-06T02:07:09;27.40;54.50
44517;DHT22;30223;17.182;-96.766;2022-11-06T02:09:37;27.30;54.60
44517;DHT22;30223;17.182;-96.766;2022-11-06T02:12:21;27.30;54.70
44517;DHT22;30223;17.182;-96.766;2022-11-06T02:15:13;27.30;54.80
44517;DHT22;30223;17.182;-96.766;2022-11-06T02:17:51;27.40;55.00
44517;DHT22;30223;17.182;-96.766;2022-11-06T02:23:11;27.30;55.00
44517;DHT22;30223;17.182;-96.766;2022-11-06T02:26:06;27.30;55.10
44517;DHT22;30223;17.182;-96.766;2022-11-06T02:28:43;27.30;55.20
44517;DHT22;30223;17.182;-96.766;2022-11-06T02:31:16;27.30;55.20
44517;DHT22;30223;17.182;-96.766;2022-11-06T02:33:53;27.30;55.20
44517;DHT22;30223;17.182;-96.766;2022-11-06T02:36:28;27.30;55.30
44517;DHT22;30223;17.182;-96.766;2022-11-06T02:39:00;27.20;55.20
44517;DHT22;30223;17.182;-96.766;2022-11-06T02:41:32;27.30;55.30
44517;DHT22;30223;17.182;-96.766;2022-11-06T02:44:02;27.20;55.30
44517;DHT22;30223;17.182;-96.766;2022-11-06T02:46:40;27.20;55.40
44517;DHT22;30223;17.182;-96.766;2022-11-06T02:49:25;27.20;55.40
44517;DHT22;30223;17.182;-96.766;2022-11-06T02:51:57;27.20;55.50
44517;DHT22;30223;17.182;-96.766;2022-11-06T02:54:27;27.20;55.50
44517;DHT22;30223;17.182;-96.766;2022-11-06T02:56:59;27.20;55.60
44517;DHT22;30223;17.182;-96.766;2022-11-06T02:59:40;27.20;55.60
44517;DHT22;30223;17.182;-96.766;2022-11-06T03:02:11;27.20;55.70
44517;DHT22;30223;17.182;-96.766;2022-11-06T03:04:54;27.20;55.80
44517;DHT22;30223;17.182;-96.766;2022-11-06T03:07:37;27.20;55.80
44517;DHT22;30223;17.182;-96.766;2022-11-06T03:10:06;27.20;55.90
44517;DHT22;30223;17.182;-96.766;2022-11-06T03:12:56;27.20;55.90
44517;DHT22;30223;17.182;-96.766;2022-11-06T03:15:46;27.10;55.90
44517;DHT22;30223;17.182;-96.766;2022-11-06T03:18:31;27.10;56.00
44517;DHT22;30223;17.182;-96.766;2022-11-06T03:21:17;27.10;56.10
44517;DHT22;30223;17.182;-96.766;2022-11-06T03:23:53;27.10;56.10
44517;DHT22;30223;17.182;-96.766;2022-11-06T03:26:34;27.10;56.10
44517;DHT22;30223;17.182;-96.766;2022-11-06T03:29:32;27.10;56.20
44517;DHT22;30223;17.182;-96.766;2022-11-06T03:32:56;27.10;56.30
44517;DHT22;30223;17.182;-96.766;2022-11-06T03:35:25;27.10;56.40
44517;DHT22;30223;17.182;-96.766;2022-11-06T03:38:04;27.10;56.40
44517;DHT22;30223;17.182;-96.766;2022-11-06T03:40:38;27.10;56.50
44517;DHT22;30223;17.182;-96.766;2022-11-06T03:43:07;27.00;56.50
44517;DHT22;30223;17.182;-96.766;2022-11-06T03:45:35;27.00;56.50
44517;DHT22;30223;17.182;-96.766;2022-11-06T03:48:15;27.00;56.60
44517;DHT22;30223;17.182;-96.766;2022-11-06T03:51:15;27.10;56.70
44517;DHT22;30223;17.182;-96.766;2022-11-06T03:58:55;27.00;56.80
44517;DHT22;30223;17.182;-96.766;2022-11-06T04:01:27;27.00;56.80
44517;DHT22;30223;17.182;-96.766;2022-11-06T04:03:58;27.00;56.90
44517;DHT22;30223;17.182;-96.766;2022-11-06T04:06:41;27.00;56.90
44517;DHT22;30223;17.182;-96.766;2022-11-06T04:09:10;27.00;57.00
44517;DHT22;30223;17.182;-96.766;2022-11-06T04:11:59;27.00;57.10
44517;DHT22;30223;17.182;-96.766;2022-11-06T04:14:47;26.90;57.00
44517;DHT22;30223;17.182;-96.766;2022-11-06T04:17:15;26.90;57.10
44517;DHT22;30223;17.182;-96.766;2022-11-06T04:19:48;26.90;57.10
44517;DHT22;30223;17.182;-96.766;2022-11-06T04:28:14;26.90;57.30
44517;DHT22;30223;17.182;-96.766;2022-11-06T04:31:08;26.90;57.30
44517;DHT22;30223;17.182;-96.766;2022-11-06T04:42:11;26.80;57.30
44517;DHT22;30223;17.182;-96.766;2022-11-06T04:44:43;26.80;57.40
44517;DHT22;30223;17.182;-96.766;2022-11-06T04:47:16;26.80;57.40
44517;DHT22;30223;17.182;-96.766;2022-11-06T04:49:44;26.80;57.50
44517;DHT22;30223;17.182;-96.766;2022-11-06T04:52:14;26.80;57.50
44517;DHT22;30223;17.182;-96.766;2022-11-06T04:54:42;26.80;57.50
44517;DHT22;30223;17.182;-96.766;2022-11-06T04:57:10;26.80;57.60
44517;DHT22;30223;17.182;-96.766;2022-11-06T04:59:36;26.80;57.60
44517;DHT22;30223;17.182;-96.766;2022-11-06T05:02:04;26.70;57.50
44517;DHT22;30223;17.182;-96.766;2022-11-06T05:04:31;26.80;57.70
44517;DHT22;30223;17.182;-96.766;2022-11-06T05:06:58;26.70;57.60
44517;DHT22;30223;17.182;-96.766;2022-11-06T05:09:24;26.70;57.60
44517;DHT22;30223;17.182;-96.766;2022-11-06T05:11:51;26.70;57.60
44517;DHT22;30223;17.182;-96.766;2022-11-06T05:14:18;26.70;57.60
44517;DHT22;30223;17.182;-96.766;2022-11-06T05:16:44;26.70;57.70
44517;DHT22;30223;17.182;-96.766;2022-11-06T05:19:11;26.70;57.70
44517;DHT22;30223;17.182;-96.766;2022-11-06T05:21:37;26.70;57.70
44517;DHT22;30223;17.182;-96.766;2022-11-06T05:24:22;26.60;57.70
44517;DHT22;30223;17.182;-96.766;2022-11-06T05:26:49;26.70;57.80
44517;DHT22;30223;17.182;-96.766;2022-11-06T05:29:16;26.60;57.70
44517;DHT22;30223;17.182;-96.766;2022-11-06T05:31:42;26.60;57.70
44517;DHT22;30223;17.182;-96.766;2022-11-06T05:34:10;26.60;57.70
44517;DHT22;30223;17.182;-96.766;2022-11-06T05:36:36;26.60;57.80
44517;DHT22;30223;17.182;-96.766;2022-11-06T05:39:03;26.60;57.80
44517;DHT22;30223;17.182;-96.766;2022-11-06T05:41:30;26.60;57.80
44517;DHT22;30223;17.182;-96.766;2022-11-06T05:43:56;26.60;57.90
44517;DHT22;30223;17.182;-96.766;2022-11-06T05:46:23;26.60;57.90
44517;DHT22;30223;17.182;-96.766;2022-11-06T05:48:49;26.60;57.90
44517;DHT22;30223;17.182;-96.766;2022-11-06T05:51:16;26.50;57.80
44517;DHT22;30223;17.182;-96.766;2022-11-06T05:53:43;26.50;57.90
44517;DHT22;30223;17.182;-96.766;2022-11-06T05:56:09;26.50;57.90
44517;DHT22;30223;17.182;-96.766;2022-11-06T05:58:36;26.50;58.00
44517;DHT22;30223;17.182;-96.766;2022-11-06T06:01:03;26.50;57.90
44517;DHT22;30223;17.182;-96.766;2022-11-06T06:03:30;26.50;58.00
44517;DHT22;30223;17.182;-96.766;2022-11-06T06:05:57;26.50;58.00
44517;DHT22;30223;17.182;-96.766;2022-11-06T06:08:23;26.50;58.00
44517;DHT22;30223;17.182;-96.766;2022-11-06T06:10:50;26.50;58.10
44517;DHT22;30223;17.182;-96.766;2022-11-06T06:13:16;26.50;58.10
44517;DHT22;30223;17.182;-96.766;2022-11-06T06:15:43;26.50;58.10
44517;DHT22;30223;17.182;-96.766;2022-11-06T06:18:10;26.50;58.10
44517;DHT22;30223;17.182;-96.766;2022-11-06T06:20:37;26.40;58.10
44517;DHT22;30223;17.182;-96.766;2022-11-06T06:23:04;26.40;58.10
44517;DHT22;30223;17.182;-96.766;2022-11-06T06:25:31;26.40;58.10
44517;DHT22;30223;17.182;-96.766;2022-11-06T06:27:57;26.40;58.10
44517;DHT22;30223;17.182;-96.766;2022-11-06T06:30:24;26.40;58.10
44517;DHT22;30223;17.182;-96.766;2022-11-06T06:32:51;26.40;58.20
44517;DHT22;30223;17.182;-96.766;2022-11-06T06:35:18;26.40;58.20
44517;DHT22;30223;17.182;-96.766;2022-11-06T06:37:54;26.40;58.30
44517;DHT22;30223;17.182;-96.766;2022-11-06T06:40:21;26.40;58.30
44517;DHT22;30223;17.182;-96.766;2022-11-06T06:42:48;26.30;58.20
44517;DHT22;30223;17.182;-96.766;2022-11-06T06:45:15;26.30;58.20
44517;DHT22;30223;17.182;-96.766;2022-11-06T06:47:42;26.30;58.20
44517;DHT22;30223;17.182;-96.766;2022-11-06T06:50:09;26.30;58.20
44517;DHT22;30223;17.182;-96.766;2022-11-06T06:52:36;26.30;58.20
44517;DHT22;30223;17.182;-96.766;2022-11-06T06:55:03;26.30;58.30
44517;DHT22;30223;17.182;-96.766;2022-11-06T06:57:30;26.30;58.40
44517;DHT22;30223;17.182;-96.766;2022-11-06T06:59:56;26.20;58.40
44517;DHT22;30223;17.182;-96.766;2022-11-06T07:02:23;26.20;58.70
44517;DHT22;30223;17.182;-96.766;2022-11-06T07:04:49;26.20;59.00
44517;DHT22;30223;17.182;-96.766;2022-11-06T07:07:16;26.20;59.10
44517;DHT22;30223;17.182;-96.766;2022-11-06T07:09:43;26.10;59.00
44517;DHT22;30223;17.182;-96.766;2022-11-06T07:12:09;26.10;58.90
44517;DHT22;30223;17.182;-96.766;2022-11-06T07:14:36;26.10;59.10
44517;DHT22;30223;17.182;-96.766;2022-11-06T07:17:03;26.10;58.70
44517;DHT22;30223;17.182;-96.766;2022-11-06T07:19:30;26.10;58.70
44517;DHT22;30223;17.182;-96.766;2022-11-06T07:21:56;26.10;58.70
44517;DHT22;30223;17.182;-96.766;2022-11-06T07:24:23;26.10;58.80
44517;DHT22;30223;17.182;-96.766;2022-11-06T07:26:49;26.10;58.70
44517;DHT22;30223;17.182;-96.766;2022-11-06T07:29:16;26.10;58.70
44517;DHT22;30223;17.182;-96.766;2022-11-06T07:31:42;26.10;58.80
44517;DHT22;30223;17.182;-96.766;2022-11-06T07:34:09;26.10;58.80
44517;DHT22;30223;17.182;-96.766;2022-11-06T07:36:36;26.10;58.80
44517;DHT22;30223;17.182;-96.766;2022-11-06T07:39:03;26.10;58.80
44517;DHT22;30223;17.182;-96.766;2022-11-06T07:41:29;26.10;58.80
44517;DHT22;30223;17.182;-96.766;2022-11-06T07:43:56;26.10;58.80
44517;DHT22;30223;17.182;-96.766;2022-11-06T07:46:22;26.10;58.90
44517;DHT22;30223;17.182;-96.766;2022-11-06T07:48:50;26.00;58.80
44517;DHT22;30223;17.182;-96.766;2022-11-06T07:51:17;26.00;58.80
44517;DHT22;30223;17.182;-96.766;2022-11-06T07:53:44;26.00;58.80
44517;DHT22;30223;17.182;-96.766;2022-11-06T07:56:10;26.00;58.80
44517;DHT22;30223;17.182;-96.766;2022-11-06T07:58:37;26.00;58.90
44517;DHT22;30223;17.182;-96.766;2022-11-06T08:01:04;26.00;58.90
44517;DHT22;30223;17.182;-96.766;2022-11-06T08:03:30;26.00;59.00
44517;DHT22;30223;17.182;-96.766;2022-11-06T08:06:02;26.00;59.00
44517;DHT22;30223;17.182;-96.766;2022-11-06T08:08:30;26.00;59.00
44517;DHT22;30223;17.182;-96.766;2022-11-06T08:11:04;26.00;59.00
44517;DHT22;30223;17.182;-96.766;2022-11-06T08:13:31;26.00;59.00
44517;DHT22;30223;17.182;-96.766;2022-11-06T08:16:18;26.00;59.10
44517;DHT22;30223;17.182;-96.766;2022-11-06T08:18:45;26.00;59.00
44517;DHT22;30223;17.182;-96.766;2022-11-06T08:21:11;26.00;59.10
44517;DHT22;30223;17.182;-96.766;2022-11-06T08:23:38;26.00;59.10
44517;DHT22;30223;17.182;-96.766;2022-11-06T08:26:05;26.00;59.10
44517;DHT22;30223;17.182;-96.766;2022-11-06T08:28:32;25.90;59.00
44517;DHT22;30223;17.182;-96.766;2022-11-06T08:31:05;25.90;59.00
44517;DHT22;30223;17.182;-96.766;2022-11-06T08:33:32;25.90;59.00
44517;DHT22;30223;17.182;-96.766;2022-11-06T08:36:03;25.90;59.10
44517;DHT22;30223;17.182;-96.766;2022-11-06T08:38:30;25.90;59.10
44517;DHT22;30223;17.182;-96.766;2022-11-06T08:40:57;25.90;59.10
44517;DHT22;30223;17.182;-96.766;2022-11-06T08:43:24;25.90;59.10
44517;DHT22;30223;17.182;-96.766;2022-11-06T08:45:52;25.90;59.20
44517;DHT22;30223;17.182;-96.766;2022-11-06T08:48:18;25.80;59.70
44517;DHT22;30223;17.182;-96.766;2022-11-06T08:50:45;25.80;59.20
44517;DHT22;30223;17.182;-96.766;2022-11-06T08:53:12;25.90;59.20
44517;DHT22;30223;17.182;-96.766;2022-11-06T08:55:38;25.90;59.30
44517;DHT22;30223;17.182;-96.766;2022-11-06T08:58:06;25.80;59.20
44517;DHT22;30223;17.182;-96.766;2022-11-06T09:00:33;25.80;59.30
44517;DHT22;30223;17.182;-96.766;2022-11-06T09:03:02;25.80;59.30
44517;DHT22;30223;17.182;-96.766;2022-11-06T09:05:29;25.80;59.30
44517;DHT22;30223;17.182;-96.766;2022-11-06T09:07:57;25.80;59.30
44517;DHT22;30223;17.182;-96.766;2022-11-06T09:10:25;25.80;59.30
44517;DHT22;30223;17.182;-96.766;2022-11-06T09:12:52;25.80;59.30
44517;DHT22;30223;17.182;-96.766;2022-11-06T09:15:18;25.80;59.30
44517;DHT22;30223;17.182;-96.766;2022-11-06T09:17:47;25.70;59.30
44517;DHT22;30223;17.182;-96.766;2022-11-06T09:20:15;25.70;59.30
44517;DHT22;30223;17.182;-96.766;2022-11-06T09:22:43;25.70;59.30
44517;DHT22;30223;17.182;-96.766;2022-11-06T09:25:10;25.70;59.40
44517;DHT22;30223;17.182;-96.766;2022-11-06T09:27:46;25.80;59.40
44517;DHT22;30223;17.182;-96.766;2022-11-06T09:30:16;25.70;59.40
44517;DHT22;30223;17.182;-96.766;2022-11-06T09:32:48;25.70;59.40
44517;DHT22;30223;17.182;-96.766;2022-11-06T09:35:15;25.70;59.40
44517;DHT22;30223;17.182;-96.766;2022-11-06T09:37:42;25.70;59.50
44517;DHT22;30223;17.182;-96.766;2022-11-06T09:40:37;25.70;59.50
44517;DHT22;30223;17.182;-96.766;2022-11-06T09:43:26;25.70;59.40
44517;DHT22;30223;17.182;-96.766;2022-11-06T09:45:55;25.70;59.40
44517;DHT22;30223;17.182;-96.766;2022-11-06T09:48:33;25.60;59.40
44517;DHT22;30223;17.182;-96.766;2022-11-06T09:54:02;25.60;59.40
44517;DHT22;30223;17.182;-96.766;2022-11-06T09:56:32;25.60;59.40
44517;DHT22;30223;17.182;-96.766;2022-11-06T09:59:03;25.60;59.40
44517;DHT22;30223;17.182;-96.766;2022-11-06T10:01:50;25.60;59.40
44517;DHT22;30223;17.182;-96.766;2022-11-06T10:07:30;25.60;59.40
44517;DHT22;30223;17.182;-96.766;2022-11-06T10:10:00;25.60;59.40
44517;DHT22;30223;17.182;-96.766;2022-11-06T10:15:51;25.50;59.30
44517;DHT22;30223;17.182;-96.766;2022-11-06T10:21:01;25.50;59.40
44517;DHT22;30223;17.182;-96.766;2022-11-06T10:23:55;25.50;59.40
44517;DHT22;30223;17.182;-96.766;2022-11-06T10:26:44;25.50;59.40
44517;DHT22;30223;17.182;-96.766;2022-11-06T10:29:36;25.50;59.40
44517;DHT22;30223;17.182;-96.766;2022-11-06T10:40:18;25.40;59.30
44517;DHT22;30223;17.182;-96.766;2022-11-06T10:42:50;25.40;59.30
44517;DHT22;30223;17.182;-96.766;2022-11-06T10:45:19;25.40;59.30
44517;DHT22;30223;17.182;-96.766;2022-11-06T10:47:55;25.40;59.30
44517;DHT22;30223;17.182;-96.766;2022-11-06T10:50:27;25.40;59.30
44517;DHT22;30223;17.182;-96.766;2022-11-06T10:55:58;25.30;59.20
44517;DHT22;30223;17.182;-96.766;2022-11-06T10:58:31;25.30;59.20
44517;DHT22;30223;17.182;-96.766;2022-11-06T11:01:01;25.30;59.20
44517;DHT22;30223;17.182;-96.766;2022-11-06T11:03:38;25.30;59.20
44517;DHT22;30223;17.182;-96.766;2022-11-06T11:06:06;25.30;59.20
44517;DHT22;30223;17.182;-96.766;2022-11-06T11:08:40;25.30;59.20
44517;DHT22;30223;17.182;-96.766;2022-11-06T11:16:42;25.30;59.20
44517;DHT22;30223;17.182;-96.766;2022-11-06T11:19:36;25.30;59.20
44517;DHT22;30223;17.182;-96.766;2022-11-06T11:22:23;25.20;59.10
44517;DHT22;30223;17.182;-96.766;2022-11-06T11:25:01;25.20;59.10
44517;DHT22;30223;17.182;-96.766;2022-11-06T11:27:50;25.20;59.10
44517;DHT22;30223;17.182;-96.766;2022-11-06T11:30:25;25.20;59.70
44517;DHT22;30223;17.182;-96.766;2022-11-06T11:32:55;25.20;59.00
44517;DHT22;30223;17.182;-96.766;2022-11-06T11:35:29;25.20;59.10
44517;DHT22;30223;17.182;-96.766;2022-11-06T11:38:10;25.10;59.00
44517;DHT22;30223;17.182;-96.766;2022-11-06T11:40:39;25.10;59.00
44517;DHT22;30223;17.182;-96.766;2022-11-06T11:43:26;25.10;59.00
44517;DHT22;30223;17.182;-96.766;2022-11-06T11:46:17;25.10;59.00
44517;DHT22;30223;17.182;-96.766;2022-11-06T11:51:39;25.10;59.00
44517;DHT22;30223;17.182;-96.766;2022-11-06T11:59:21;25.10;59.00
44517;DHT22;30223;17.182;-96.766;2022-11-06T12:01:49;25.00;59.00
44517;DHT22;30223;17.182;-96.766;2022-11-06T12:09:24;25.00;58.90
44517;DHT22;30223;17.182;-96.766;2022-11-06T12:11:52;25.00;59.00
44517;DHT22;30223;17.182;-96.766;2022-11-06T12:14:30;25.00;59.00
44517;DHT22;30223;17.182;-96.766;2022-11-06T12:17:12;25.00;59.00
44517;DHT22;30223;17.182;-96.766;2022-11-06T12:19:47;25.00;59.60
44517;DHT22;30223;17.182;-96.766;2022-11-06T12:22:27;24.90;58.90
44517;DHT22;30223;17.182;-96.766;2022-11-06T12:24:58;24.90;58.90
44517;DHT22;30223;17.182;-96.766;2022-11-06T12:27:32;24.90;58.90
44517;DHT22;30223;17.182;-96.766;2022-11-06T12:30:14;24.90;59.00
44517;DHT22;30223;17.182;-96.766;2022-11-06T12:33:05;24.90;59.10
44517;DHT22;30223;17.182;-96.766;2022-11-06T12:35:52;24.80;58.90
44517;DHT22;30223;17.182;-96.766;2022-11-06T12:38:47;24.90;59.00
44517;DHT22;30223;17.182;-96.766;2022-11-06T12:41:38;24.90;59.00
44517;DHT22;30223;17.182;-96.766;2022-11-06T12:44:13;24.80;58.90
44517;DHT22;30223;17.182;-96.766;2022-11-06T12:46:59;24.80;59.00
44517;DHT22;30223;17.182;-96.766;2022-11-06T12:55:58;24.80;58.90
44517;DHT22;30223;17.182;-96.766;2022-11-06T13:01:15;24.70;58.90
44517;DHT22;30223;17.182;-96.766;2022-11-06T13:12:52;24.70;58.90
44517;DHT22;30223;17.182;-96.766;2022-11-06T13:15:34;24.60;59.00
44517;DHT22;30223;17.182;-96.766;2022-11-06T13:20:53;24.60;58.90
44517;DHT22;30223;17.182;-96.766;2022-11-06T13:23:32;24.60;58.90
44517;DHT22;30223;17.182;-96.766;2022-11-06T13:26:17;24.60;58.90
44517;DHT22;30223;17.182;-96.766;2022-11-06T13:28:56;24.60;58.90
44517;DHT22;30223;17.182;-96.766;2022-11-06T13:31:39;24.60;58.90
44517;DHT22;30223;17.182;-96.766;2022-11-06T13:34:13;24.60;58.90
44517;DHT22;30223;17.182;-96.766;2022-11-06T13:36:42;24.50;58.90
44517;DHT22;30223;17.182;-96.766;2022-11-06T13:41:55;24.50;59.40
44517;DHT22;30223;17.182;-96.766;2022-11-06T13:44:22;24.50;58.90
44517;DHT22;30223;17.182;-96.766;2022-11-06T13:49:56;24.60;58.90
44517;DHT22;30223;17.182;-96.766;2022-11-06T13:52:32;24.50;58.90
44517;DHT22;30223;17.182;-96.766;2022-11-06T13:55:13;24.50;59.00
44517;DHT22;30223;17.182;-96.766;2022-11-06T14:00:55;24.50;59.00
44517;DHT22;30223;17.182;-96.766;2022-11-06T14:06:05;24.50;59.10
44517;DHT22;30223;17.182;-96.766;2022-11-06T14:08:42;24.60;59.20
44517;DHT22;30223;17.182;-96.766;2022-11-06T14:11:13;24.60;59.20
44517;DHT22;30223;17.182;-96.766;2022-11-06T14:13:41;24.50;59.20
44517;DHT22;30223;17.182;-96.766;2022-11-06T14:19:21;24.50;59.30
44517;DHT22;30223;17.182;-96.766;2022-11-06T14:24:37;24.60;59.40
44517;DHT22;30223;17.182;-96.766;2022-11-06T14:32:04;24.60;59.50
44517;DHT22;30223;17.182;-96.766;2022-11-06T14:34:39;24.60;59.50
44517;DHT22;30223;17.182;-96.766;2022-11-06T14:40:04;24.60;59.50
44517;DHT22;30223;17.182;-96.766;2022-11-06T14:55:37;24.60;59.70
44517;DHT22;30223;17.182;-96.766;2022-11-06T15:03:25;24.70;59.80
44517;DHT22;30223;17.182;-96.766;2022-11-06T15:16:41;24.70;60.20
44517;DHT22;30223;17.182;-96.766;2022-11-06T15:19:30;24.70;60.80
44517;DHT22;30223;17.182;-96.766;2022-11-06T15:22:13;24.70;60.30
44517;DHT22;30223;17.182;-96.766;2022-11-06T15:25:06;24.70;60.30
44517;DHT22;30223;17.182;-96.766;2022-11-06T15:27:44;24.80;60.30
44517;DHT22;30223;17.182;-96.766;2022-11-06T15:30:17;24.80;60.50
44517;DHT22;30223;17.182;-96.766;2022-11-06T15:32:46;24.80;60.40
44517;DHT22;30223;17.182;-96.766;2022-11-06T15:35:22;24.80;62.00
44517;DHT22;30223;17.182;-96.766;2022-11-06T15:38:03;24.80;61.50
44517;DHT22;30223;17.182;-96.766;2022-11-06T15:43:19;24.80;61.70
44517;DHT22;30223;17.182;-96.766;2022-11-06T15:46:22;24.90;61.80
44517;DHT22;30223;17.182;-96.766;2022-11-06T15:49:14;24.80;62.00
44517;DHT22;30223;17.182;-96.766;2022-11-06T15:51:58;24.90;62.10
44517;DHT22;30223;17.182;-96.766;2022-11-06T15:54:40;24.90;62.10
44517;DHT22;30223;17.182;-96.766;2022-11-06T15:57:27;24.90;62.50
44517;DHT22;30223;17.182;-96.766;2022-11-06T16:03:02;24.80;60.10
44517;DHT22;30223;17.182;-96.766;2022-11-06T16:05:33;24.80;60.20
44517;DHT22;30223;17.182;-96.766;2022-11-06T16:08:03;24.60;58.80
44517;DHT22;30223;17.182;-96.766;2022-11-06T16:10:31;24.70;59.50
44517;DHT22;30223;17.182;-96.766;2022-11-06T16:13:01;24.80;60.10
44517;DHT22;30223;17.182;-96.766;2022-11-06T16:15:48;24.80;60.00
44517;DHT22;30223;17.182;-96.766;2022-11-06T16:18:16;24.80;59.80
44517;DHT22;30223;17.182;-96.766;2022-11-06T16:20:48;24.90;59.90
44517;DHT22;30223;17.182;-96.766;2022-11-06T16:23:18;24.90;59.90
44517;DHT22;30223;17.182;-96.766;2022-11-06T16:25:46;24.90;59.90
44517;DHT22;30223;17.182;-96.766;2022-11-06T16:28:22;25.00;59.30
44517;DHT22;30223;17.182;-96.766;2022-11-06T16:30:49;24.90;59.40
44517;DHT22;30223;17.182;-96.766;2022-11-06T16:33:20;25.00;59.50
44517;DHT22;30223;17.182;-96.766;2022-11-06T16:35:49;25.00;59.10
44517;DHT22;30223;17.182;-96.766;2022-11-06T16:40:53;25.10;58.60
44517;DHT22;30223;17.182;-96.766;2022-11-06T16:43:22;25.10;58.60
44517;DHT22;30223;17.182;-96.766;2022-11-06T16:46:02;25.10;58.20
44517;DHT22;30223;17.182;-96.766;2022-11-06T16:48:42;25.10;58.00
44517;DHT22;30223;17.182;-96.766;2022-11-06T16:51:14;25.10;57.70
44517;DHT22;30223;17.182;-96.766;2022-11-06T16:56:24;25.20;57.10
44517;DHT22;30223;17.182;-96.766;2022-11-06T16:59:14;25.30;58.00
44517;DHT22;30223;17.182;-96.766;2022-11-06T17:01:43;25.30;57.40
44517;DHT22;30223;17.182;-96.766;2022-11-06T17:04:23;25.30;57.10
44517;DHT22;30223;17.182;-96.766;2022-11-06T17:06:52;25.30;57.30
44517;DHT22;30223;17.182;-96.766;2022-11-06T17:11:55;25.30;56.80
44517;DHT22;30223;17.182;-96.766;2022-11-06T17:14:23;25.40;56.40
44517;DHT22;30223;17.182;-96.766;2022-11-06T17:16:55;25.50;56.00
44517;DHT22;30223;17.182;-96.766;2022-11-06T17:19:23;25.50;55.70
44517;DHT22;30223;17.182;-96.766;2022-11-06T17:21:51;25.50;54.60
44517;DHT22;30223;17.182;-96.766;2022-11-06T17:24:18;25.50;55.50
44517;DHT22;30223;17.182;-96.766;2022-11-06T17:26:50;25.50;56.10
44517;DHT22;30223;17.182;-96.766;2022-11-06T17:29:18;25.60;55.80
44517;DHT22;30223;17.182;-96.766;2022-11-06T17:31:45;25.60;55.60
44517;DHT22;30223;17.182;-96.766;2022-11-06T17:34:11;25.70;55.20
44517;DHT22;30223;17.182;-96.766;2022-11-06T17:36:38;25.70;55.30
44517;DHT22;30223;17.182;-96.766;2022-11-06T17:39:05;25.70;55.00
44517;DHT22;30223;17.182;-96.766;2022-11-06T17:41:32;25.80;55.40
44517;DHT22;30223;17.182;-96.766;2022-11-06T17:44:06;25.80;55.40
44517;DHT22;30223;17.182;-96.766;2022-11-06T17:46:41;25.80;55.70
44517;DHT22;30223;17.182;-96.766;2022-11-06T17:49:08;25.90;55.80
44517;DHT22;30223;17.182;-96.766;2022-11-06T17:51:35;25.90;56.00
44517;DHT22;30223;17.182;-96.766;2022-11-06T17:54:22;25.90;56.10
44517;DHT22;30223;17.182;-96.766;2022-11-06T17:56:50;26.00;56.10
44517;DHT22;30223;17.182;-96.766;2022-11-06T17:59:19;26.00;56.20
44517;DHT22;30223;17.182;-96.766;2022-11-06T18:01:46;26.00;56.10
44517;DHT22;30223;17.182;-96.766;2022-11-06T18:04:15;26.00;56.00
44517;DHT22;30223;17.182;-96.766;2022-11-06T18:06:45;26.00;56.00
44517;DHT22;30223;17.182;-96.766;2022-11-06T18:09:13;26.00;55.70
44517;DHT22;30223;17.182;-96.766;2022-11-06T18:11:41;26.10;56.10
44517;DHT22;30223;17.182;-96.766;2022-11-06T18:14:08;26.10;55.80
44517;DHT22;30223;17.182;-96.766;2022-11-06T18:16:37;26.10;55.80
44517;DHT22;30223;17.182;-96.766;2022-11-06T18:19:10;26.20;55.80
44517;DHT22;30223;17.182;-96.766;2022-11-06T18:21:37;26.20;55.90
44517;DHT22;30223;17.182;-96.766;2022-11-06T18:24:04;26.20;55.60
44517;DHT22;30223;17.182;-96.766;2022-11-06T18:26:31;26.30;55.70